sensor_id;sensor_type;location;lat;lon;timestamp;P1;durP1;ratioP1;P2;durP2;ratioP2
2061;SDS011;11070;51.336;12.340;2023-06-24T00:02:08;31.80;;;23.20;;
2061;SDS011;11070;51.336;12.340;2023-06-24T00:04:34;36.67;;;23.70;;
2061;SDS011;11070;51.336;12.340;2023-06-24T00:07:00;27.77;;;23.97;;
2061;SDS011;11070;51.336;12.340;2023-06-24T00:09:26;35.47;;;24.88;;
2061;SDS011;11070;51.336;12.340;2023-06-24T00:11:58;35.90;;;24.58;;
2061;SDS011;11070;51.336;12.340;2023-06-24T00:14:24;29.85;;;24.20;;
2061;SDS011;11070;51.336;12.340;2023-06-24T00:16:51;33.92;;;24.90;;
2061;SDS011;11070;51.336;12.340;2023-06-24T00:19:22;33.28;;;23.98;;
2061;SDS011;11070;51.336;12.340;2023-06-24T00:21:49;31.02;;;24.13;;
2061;SDS011;11070;51.336;12.340;2023-06-24T00:24:17;39.65;;;23.63;;
2061;SDS011;11070;51.336;12.340;2023-06-24T00:26:45;27.45;;;22.70;;
2061;SDS011;11070;51.336;12.340;2023-06-24T00:29:11;28.63;;;21.10;;
2061;SDS011;11070;51.336;12.340;2023-06-24T00:31:37;28.50;;;20.47;;
2061;SDS011;11070;51.336;12.340;2023-06-24T00:34:02;25.10;;;19.10;;
2061;SDS011;11070;51.336;12.340;2023-06-24T00:36:29;29.00;;;21.38;;
2061;SDS011;11070;51.336;12.340;2023-06-24T00:38:57;26.75;;;19.13;;
2061;SDS011;11070;51.336;12.340;2023-06-24T00:41:28;23.90;;;18.77;;
2061;SDS011;11070;51.336;12.340;2023-06-24T00:43:55;26.40;;;20.83;;
2061;SDS011;11070;51.336;12.340;2023-06-24T00:46:22;23.55;;;19.45;;
2061;SDS011;11070;51.336;12.340;2023-06-24T00:48:57;26.15;;;20.10;;
2061;SDS011;11070;51.336;12.340;2023-06-24T00:51:23;25.52;;;17.40;;
2061;SDS011;11070;51.336;12.340;2023-06-24T00:53:58;21.83;;;18.40;;
2061;SDS011;11070;51.336;12.340;2023-06-24T00:56:25;24.52;;;18.27;;
2061;SDS011;11070;51.336;12.340;2023-06-24T00:58:57;25.55;;;17.52;;
2061;SDS011;11070;51.336;12.340;2023-06-24T01:01:24;28.27;;;17.80;;
2061;SDS011;11070;51.336;12.340;2023-06-24T01:03:50;19.67;;;16.80;;
2061;SDS011;11070;51.336;12.340;2023-06-24T01:06:16;24.30;;;18.27;;
2061;SDS011;11070;51.336;12.340;2023-06-24T01:08:42;22.10;;;16.60;;
2061;SDS011;11070;51.336;12.340;2023-06-24T01:11:08;19.43;;;16.50;;
2061;SDS011;11070;51.336;12.340;2023-06-24T01:13:34;22.80;;;16.47;;
2061;SDS011;11070;51.336;12.340;2023-06-24T01:16:00;19.93;;;15.30;;
2061;SDS011;11070;51.336;12.340;2023-06-24T01:18:34;27.05;;;17.80;;
2061;SDS011;11070;51.336;12.340;2023-06-24T01:21:10;19.20;;;17.00;;
2061;SDS011;11070;51.336;12.340;2023-06-24T01:32:22;23.23;;;16.25;;
2061;SDS011;11070;51.336;12.340;2023-06-24T01:35:34;19.60;;;15.98;;
2061;SDS011;11070;51.336;12.340;2023-06-24T01:37:42;17.95;;;15.57;;
2061;SDS011;11070;51.336;12.340;2023-06-24T01:43:08;19.77;;;15.57;;
2061;SDS011;11070;51.336;12.340;2023-06-24T01:45:37;21.85;;;15.07;;
2061;SDS011;11070;51.336;12.340;2023-06-24T01:48:16;18.58;;;14.10;;
2061;SDS011;11070;51.336;12.340;2023-06-24T01:50:51;21.90;;;16.25;;
2061;SDS011;11070;51.336;12.340;2023-06-24T01:53:23;21.08;;;15.68;;
2061;SDS011;11070;51.336;12.340;2023-06-24T01:55:51;20.75;;;15.65;;
2061;SDS011;11070;51.336;12.340;2023-06-24T01:58:19;24.35;;;16.23;;
2061;SDS011;11070;51.336;12.340;2023-06-24T02:00:47;17.65;;;14.65;;
2061;SDS011;11070;51.336;12.340;2023-06-24T02:03:14;21.58;;;16.40;;
2061;SDS011;11070;51.336;12.340;2023-06-24T02:05:40;20.02;;;16.33;;
2061;SDS011;11070;51.336;12.340;2023-06-24T02:08:08;17.20;;;14.57;;
2061;SDS011;11070;51.336;12.340;2023-06-24T02:10:36;18.42;;;15.38;;
2061;SDS011;11070;51.336;12.340;2023-06-24T02:13:03;21.52;;;14.32;;
2061;SDS011;11070;51.336;12.340;2023-06-24T02:15:29;17.95;;;13.85;;
2061;SDS011;11070;51.336;12.340;2023-06-24T02:17:56;16.45;;;13.77;;
2061;SDS011;11070;51.336;12.340;2023-06-24T02:20:23;23.25;;;14.73;;
2061;SDS011;11070;51.336;12.340;2023-06-24T02:22:53;21.67;;;13.57;;
2061;SDS011;11070;51.336;12.340;2023-06-24T02:25:20;22.75;;;13.95;;
2061;SDS011;11070;51.336;12.340;2023-06-24T02:27:47;18.98;;;15.05;;
2061;SDS011;11070;51.336;12.340;2023-06-24T02:30:13;20.93;;;15.50;;
2061;SDS011;11070;51.336;12.340;2023-06-24T02:32:40;19.40;;;14.05;;
2061;SDS011;11070;51.336;12.340;2023-06-24T02:35:06;19.80;;;15.73;;
2061;SDS011;11070;51.336;12.340;2023-06-24T02:37:32;23.23;;;15.73;;
2061;SDS011;11070;51.336;12.340;2023-06-24T02:39:58;17.52;;;15.20;;
2061;SDS011;11070;51.336;12.340;2023-06-24T02:42:25;24.25;;;16.42;;
2061;SDS011;11070;51.336;12.340;2023-06-24T02:44:51;22.30;;;15.30;;
2061;SDS011;11070;51.336;12.340;2023-06-24T02:47:17;23.03;;;15.57;;
2061;SDS011;11070;51.336;12.340;2023-06-24T02:49:45;20.88;;;15.00;;
2061;SDS011;11070;51.336;12.340;2023-06-24T02:52:13;23.15;;;16.35;;
2061;SDS011;11070;51.336;12.340;2023-06-24T02:54:39;18.48;;;14.93;;
2061;SDS011;11070;51.336;12.340;2023-06-24T02:57:06;21.92;;;15.45;;
2061;SDS011;11070;51.336;12.340;2023-06-24T02:59:33;18.92;;;15.93;;
2061;SDS011;11070;51.336;12.340;2023-06-24T03:01:59;18.83;;;13.93;;
2061;SDS011;11070;51.336;12.340;2023-06-24T03:04:25;16.10;;;14.40;;
2061;SDS011;11070;51.336;12.340;2023-06-24T03:06:51;19.30;;;14.73;;
2061;SDS011;11070;51.336;12.340;2023-06-24T03:09:18;21.55;;;15.63;;
2061;SDS011;11070;51.336;12.340;2023-06-24T03:11:44;20.53;;;16.70;;
2061;SDS011;11070;51.336;12.340;2023-06-24T03:14:16;17.58;;;14.23;;
2061;SDS011;11070;51.336;12.340;2023-06-24T03:16:42;19.70;;;13.70;;
2061;SDS011;11070;51.336;12.340;2023-06-24T03:19:07;20.83;;;15.00;;
2061;SDS011;11070;51.336;12.340;2023-06-24T03:21:33;28.07;;;15.43;;
2061;SDS011;11070;51.336;12.340;2023-06-24T03:23:59;19.83;;;14.17;;
2061;SDS011;11070;51.336;12.340;2023-06-24T03:26:34;16.47;;;13.90;;
2061;SDS011;11070;51.336;12.340;2023-06-24T03:29:03;18.60;;;13.48;;
2061;SDS011;11070;51.336;12.340;2023-06-24T03:31:29;20.57;;;14.50;;
2061;SDS011;11070;51.336;12.340;2023-06-24T03:33:55;20.42;;;14.85;;
2061;SDS011;11070;51.336;12.340;2023-06-24T03:36:21;20.10;;;15.20;;
2061;SDS011;11070;51.336;12.340;2023-06-24T03:38:46;21.07;;;13.90;;
2061;SDS011;11070;51.336;12.340;2023-06-24T03:41:12;15.37;;;13.73;;
2061;SDS011;11070;51.336;12.340;2023-06-24T03:43:39;18.53;;;13.33;;
2061;SDS011;11070;51.336;12.340;2023-06-24T03:46:04;16.38;;;11.95;;
2061;SDS011;11070;51.336;12.340;2023-06-24T03:48:30;16.37;;;13.20;;
2061;SDS011;11070;51.336;12.340;2023-06-24T03:50:56;16.73;;;12.87;;
2061;SDS011;11070;51.336;12.340;2023-06-24T03:53:21;16.00;;;12.80;;
2061;SDS011;11070;51.336;12.340;2023-06-24T03:55:47;17.30;;;12.67;;
2061;SDS011;11070;51.336;12.340;2023-06-24T03:58:13;14.17;;;12.57;;
2061;SDS011;11070;51.336;12.340;2023-06-24T04:00:39;17.20;;;13.20;;
2061;SDS011;11070;51.336;12.340;2023-06-24T04:03:06;14.20;;;12.45;;
2061;SDS011;11070;51.336;12.340;2023-06-24T04:05:32;17.30;;;12.25;;
2061;SDS011;11070;51.336;12.340;2023-06-24T04:07:58;14.80;;;12.75;;
2061;SDS011;11070;51.336;12.340;2023-06-24T04:10:24;16.47;;;13.40;;
2061;SDS011;11070;51.336;12.340;2023-06-24T04:12:50;17.97;;;12.10;;
2061;SDS011;11070;51.336;12.340;2023-06-24T04:15:16;20.63;;;13.43;;
2061;SDS011;11070;51.336;12.340;2023-06-24T04:17:42;14.60;;;13.10;;
2061;SDS011;11070;51.336;12.340;2023-06-24T04:20:08;14.70;;;12.33;;
2061;SDS011;11070;51.336;12.340;2023-06-24T04:22:35;13.73;;;12.32;;
2061;SDS011;11070;51.336;12.340;2023-06-24T04:25:03;13.25;;;11.15;;
2061;SDS011;11070;51.336;12.340;2023-06-24T04:27:30;14.40;;;11.50;;
2061;SDS011;11070;51.336;12.340;2023-06-24T04:29:57;14.60;;;12.60;;
2061;SDS011;11070;51.336;12.340;2023-06-24T04:32:22;13.77;;;11.23;;
2061;SDS011;11070;51.336;12.340;2023-06-24T04:34:48;15.83;;;11.93;;
2061;SDS011;11070;51.336;12.340;2023-06-24T04:37:14;16.47;;;11.70;;
2061;SDS011;11070;51.336;12.340;2023-06-24T04:39:39;13.67;;;12.37;;
2061;SDS011;11070;51.336;12.340;2023-06-24T04:42:05;12.83;;;11.50;;
2061;SDS011;11070;51.336;12.340;2023-06-24T04:44:30;13.03;;;11.67;;
2061;SDS011;11070;51.336;12.340;2023-06-24T04:46:56;16.17;;;12.00;;
2061;SDS011;11070;51.336;12.340;2023-06-24T04:49:22;14.10;;;12.67;;
2061;SDS011;11070;51.336;12.340;2023-06-24T04:51:47;13.37;;;11.43;;
2061;SDS011;11070;51.336;12.340;2023-06-24T04:54:13;17.57;;;12.90;;
2061;SDS011;11070;51.336;12.340;2023-06-24T04:56:39;13.93;;;12.40;;
2061;SDS011;11070;51.336;12.340;2023-06-24T04:59:05;13.70;;;12.02;;
2061;SDS011;11070;51.336;12.340;2023-06-24T05:01:30;13.30;;;11.87;;
2061;SDS011;11070;51.336;12.340;2023-06-24T05:03:56;16.60;;;12.20;;
2061;SDS011;11070;51.336;12.340;2023-06-24T05:06:22;16.90;;;11.83;;
2061;SDS011;11070;51.336;12.340;2023-06-24T05:08:49;15.98;;;12.02;;
2061;SDS011;11070;51.336;12.340;2023-06-24T05:11:15;18.60;;;12.73;;
2061;SDS011;11070;51.336;12.340;2023-06-24T05:13:40;15.30;;;12.33;;
2061;SDS011;11070;51.336;12.340;2023-06-24T05:16:06;14.80;;;11.27;;
2061;SDS011;11070;51.336;12.340;2023-06-24T05:18:32;21.13;;;12.60;;
2061;SDS011;11070;51.336;12.340;2023-06-24T05:20:57;17.57;;;12.47;;
2061;SDS011;11070;51.336;12.340;2023-06-24T05:23:23;14.87;;;12.10;;
2061;SDS011;11070;51.336;12.340;2023-06-24T05:25:49;12.67;;;11.37;;
2061;SDS011;11070;51.336;12.340;2023-06-24T05:28:14;12.40;;;11.20;;
2061;SDS011;11070;51.336;12.340;2023-06-24T05:30:40;17.40;;;11.60;;
2061;SDS011;11070;51.336;12.340;2023-06-24T05:33:06;16.95;;;11.40;;
2061;SDS011;11070;51.336;12.340;2023-06-24T05:35:33;20.13;;;11.67;;
2061;SDS011;11070;51.336;12.340;2023-06-24T05:37:58;11.68;;;10.48;;
2061;SDS011;11070;51.336;12.340;2023-06-24T05:40:24;12.83;;;10.47;;
2061;SDS011;11070;51.336;12.340;2023-06-24T05:42:49;12.80;;;10.27;;
2061;SDS011;11070;51.336;12.340;2023-06-24T05:45:17;11.60;;;10.60;;
2061;SDS011;11070;51.336;12.340;2023-06-24T05:47:42;11.03;;;9.93;;
2061;SDS011;11070;51.336;12.340;2023-06-24T05:50:08;13.30;;;10.70;;
2061;SDS011;11070;51.336;12.340;2023-06-24T05:52:34;14.20;;;10.23;;
2061;SDS011;11070;51.336;12.340;2023-06-24T05:54:59;13.00;;;10.40;;
2061;SDS011;11070;51.336;12.340;2023-06-24T05:57:25;14.43;;;10.50;;
2061;SDS011;11070;51.336;12.340;2023-06-24T05:59:51;13.73;;;10.57;;
2061;SDS011;11070;51.336;12.340;2023-06-24T06:02:16;12.17;;;10.40;;
2061;SDS011;11070;51.336;12.340;2023-06-24T06:04:42;13.60;;;11.20;;
2061;SDS011;11070;51.336;12.340;2023-06-24T06:07:08;13.33;;;11.47;;
2061;SDS011;11070;51.336;12.340;2023-06-24T06:09:33;12.80;;;10.73;;
2061;SDS011;11070;51.336;12.340;2023-06-24T06:11:59;13.13;;;10.97;;
2061;SDS011;11070;51.336;12.340;2023-06-24T06:14:25;13.02;;;11.55;;
2061;SDS011;11070;51.336;12.340;2023-06-24T06:16:51;11.30;;;10.20;;
2061;SDS011;11070;51.336;12.340;2023-06-24T06:19:17;13.80;;;12.15;;
2061;SDS011;11070;51.336;12.340;2023-06-24T06:21:43;13.55;;;11.77;;
2061;SDS011;11070;51.336;12.340;2023-06-24T06:24:09;12.63;;;10.63;;
2061;SDS011;11070;51.336;12.340;2023-06-24T06:26:40;12.13;;;10.63;;
2061;SDS011;11070;51.336;12.340;2023-06-24T06:29:09;12.07;;;10.88;;
2061;SDS011;11070;51.336;12.340;2023-06-24T06:31:35;13.70;;;9.73;;
2061;SDS011;11070;51.336;12.340;2023-06-24T06:34:01;13.03;;;10.63;;
2061;SDS011;11070;51.336;12.340;2023-06-24T06:36:27;11.87;;;10.50;;
2061;SDS011;11070;51.336;12.340;2023-06-24T06:38:52;13.83;;;11.90;;
2061;SDS011;11070;51.336;12.340;2023-06-24T06:41:18;12.73;;;11.40;;
2061;SDS011;11070;51.336;12.340;2023-06-24T06:43:49;13.30;;;11.88;;
2061;SDS011;11070;51.336;12.340;2023-06-24T06:46:15;12.35;;;11.20;;
2061;SDS011;11070;51.336;12.340;2023-06-24T06:48:41;13.70;;;12.20;;
2061;SDS011;11070;51.336;12.340;2023-06-24T06:51:07;13.57;;;12.10;;
2061;SDS011;11070;51.336;12.340;2023-06-24T06:53:32;12.13;;;11.03;;
2061;SDS011;11070;51.336;12.340;2023-06-24T06:55:58;13.80;;;11.67;;
2061;SDS011;11070;51.336;12.340;2023-06-24T06:58:24;12.50;;;11.20;;
2061;SDS011;11070;51.336;12.340;2023-06-24T07:00:50;13.53;;;12.23;;
2061;SDS011;11070;51.336;12.340;2023-06-24T07:03:15;14.30;;;11.50;;
2061;SDS011;11070;51.336;12.340;2023-06-24T07:05:41;16.00;;;12.43;;
2061;SDS011;11070;51.336;12.340;2023-06-24T07:08:07;12.93;;;10.77;;
2061;SDS011;11070;51.336;12.340;2023-06-24T07:10:33;12.90;;;11.70;;
2061;SDS011;11070;51.336;12.340;2023-06-24T07:12:58;12.80;;;10.83;;
2061;SDS011;11070;51.336;12.340;2023-06-24T07:15:25;13.40;;;11.33;;
2061;SDS011;11070;51.336;12.340;2023-06-24T07:17:51;12.07;;;10.70;;
2061;SDS011;11070;51.336;12.340;2023-06-24T07:20:17;12.70;;;11.50;;
2061;SDS011;11070;51.336;12.340;2023-06-24T07:22:42;12.20;;;10.90;;
2061;SDS011;11070;51.336;12.340;2023-06-24T07:25:09;11.97;;;10.90;;
2061;SDS011;11070;51.336;12.340;2023-06-24T07:27:34;14.13;;;11.10;;
2061;SDS011;11070;51.336;12.340;2023-06-24T07:30:00;12.20;;;10.80;;
2061;SDS011;11070;51.336;12.340;2023-06-24T07:32:25;12.20;;;11.00;;
2061;SDS011;11070;51.336;12.340;2023-06-24T07:34:51;11.40;;;10.40;;
2061;SDS011;11070;51.336;12.340;2023-06-24T07:37:17;11.07;;;9.97;;
2061;SDS011;11070;51.336;12.340;2023-06-24T07:39:42;12.47;;;10.00;;
2061;SDS011;11070;51.336;12.340;2023-06-24T07:42:08;10.67;;;9.57;;
2061;SDS011;11070;51.336;12.340;2023-06-24T07:44:34;11.17;;;10.03;;
2061;SDS011;11070;51.336;12.340;2023-06-24T07:47:01;11.82;;;10.82;;
2061;SDS011;11070;51.336;12.340;2023-06-24T07:49:28;13.40;;;10.65;;
2061;SDS011;11070;51.336;12.340;2023-06-24T07:51:54;11.40;;;10.30;;
2061;SDS011;11070;51.336;12.340;2023-06-24T07:54:19;11.33;;;10.33;;
2061;SDS011;11070;51.336;12.340;2023-06-24T07:56:45;11.90;;;10.80;;
2061;SDS011;11070;51.336;12.340;2023-06-24T07:59:11;11.57;;;10.40;;
2061;SDS011;11070;51.336;12.340;2023-06-24T08:01:36;13.97;;;10.90;;
2061;SDS011;11070;51.336;12.340;2023-06-24T08:04:02;10.20;;;9.20;;
2061;SDS011;11070;51.336;12.340;2023-06-24T08:06:28;10.97;;;9.87;;
2061;SDS011;11070;51.336;12.340;2023-06-24T08:08:53;10.20;;;9.20;;
2061;SDS011;11070;51.336;12.340;2023-06-24T08:11:19;11.47;;;9.20;;
2061;SDS011;11070;51.336;12.340;2023-06-24T08:13:46;10.23;;;9.23;;
2061;SDS011;11070;51.336;12.340;2023-06-24T08:16:12;9.03;;;8.23;;
2061;SDS011;11070;51.336;12.340;2023-06-24T08:18:40;8.45;;;7.75;;
2061;SDS011;11070;51.336;12.340;2023-06-24T08:21:05;9.37;;;8.47;;
2061;SDS011;11070;51.336;12.340;2023-06-24T08:23:31;8.50;;;7.77;;
2061;SDS011;11070;51.336;12.340;2023-06-24T08:25:56;11.50;;;8.27;;
2061;SDS011;11070;51.336;12.340;2023-06-24T08:28:22;10.93;;;8.67;;
2061;SDS011;11070;51.336;12.340;2023-06-24T08:30:48;9.37;;;8.47;;
2061;SDS011;11070;51.336;12.340;2023-06-24T08:33:13;9.20;;;8.40;;
2061;SDS011;11070;51.336;12.340;2023-06-24T08:35:39;8.40;;;7.60;;
2061;SDS011;11070;51.336;12.340;2023-06-24T08:38:04;7.33;;;6.60;;
2061;SDS011;11070;51.336;12.340;2023-06-24T08:40:30;7.03;;;6.37;;
2061;SDS011;11070;51.336;12.340;2023-06-24T08:42:56;7.87;;;7.27;;
2061;SDS011;11070;51.336;12.340;2023-06-24T08:45:23;7.40;;;6.80;;
2061;SDS011;11070;51.336;12.340;2023-06-24T08:47:49;8.20;;;7.07;;
2061;SDS011;11070;51.336;12.340;2023-06-24T08:50:15;7.57;;;6.90;;
2061;SDS011;11070;51.336;12.340;2023-06-24T08:52:43;8.23;;;7.50;;
2061;SDS011;11070;51.336;12.340;2023-06-24T08:55:14;7.53;;;6.63;;
2061;SDS011;11070;51.336;12.340;2023-06-24T08:57:42;7.63;;;6.93;;
2061;SDS011;11070;51.336;12.340;2023-06-24T09:00:08;6.73;;;6.13;;
2061;SDS011;11070;51.336;12.340;2023-06-24T09:02:35;7.60;;;6.80;;
2061;SDS011;11070;51.336;12.340;2023-06-24T09:05:04;7.53;;;6.90;;
2061;SDS011;11070;51.336;12.340;2023-06-24T09:07:30;7.17;;;6.47;;
2061;SDS011;11070;51.336;12.340;2023-06-24T09:09:56;6.77;;;6.17;;
2061;SDS011;11070;51.336;12.340;2023-06-24T09:12:23;6.60;;;6.00;;
2061;SDS011;11070;51.336;12.340;2023-06-24T09:14:49;6.00;;;5.60;;
2061;SDS011;11070;51.336;12.340;2023-06-24T09:17:16;5.73;;;5.33;;
2061;SDS011;11070;51.336;12.340;2023-06-24T09:19:42;6.30;;;5.83;;
2061;SDS011;11070;51.336;12.340;2023-06-24T09:22:08;6.87;;;6.27;;
2061;SDS011;11070;51.336;12.340;2023-06-24T09:24:41;7.83;;;6.97;;
2061;SDS011;11070;51.336;12.340;2023-06-24T09:27:07;7.67;;;6.97;;
2061;SDS011;11070;51.336;12.340;2023-06-24T09:29:34;7.60;;;6.90;;
2061;SDS011;11070;51.336;12.340;2023-06-24T09:32:03;6.90;;;6.20;;
2061;SDS011;11070;51.336;12.340;2023-06-24T09:34:30;7.10;;;6.50;;
2061;SDS011;11070;51.336;12.340;2023-06-24T09:36:57;8.67;;;6.50;;
2061;SDS011;11070;51.336;12.340;2023-06-24T09:39:24;7.13;;;5.67;;
2061;SDS011;11070;51.336;12.340;2023-06-24T09:41:54;6.07;;;5.57;;
2061;SDS011;11070;51.336;12.340;2023-06-24T09:44:24;6.10;;;5.60;;
2061;SDS011;11070;51.336;12.340;2023-06-24T09:46:50;6.77;;;6.00;;
2061;SDS011;11070;51.336;12.340;2023-06-24T09:49:17;6.43;;;5.83;;
2061;SDS011;11070;51.336;12.340;2023-06-24T09:51:46;6.13;;;5.73;;
2061;SDS011;11070;51.336;12.340;2023-06-24T09:54:14;6.00;;;5.50;;
2061;SDS011;11070;51.336;12.340;2023-06-24T09:56:50;6.93;;;6.33;;
2061;SDS011;11070;51.336;12.340;2023-06-24T09:59:19;6.60;;;6.07;;
2061;SDS011;11070;51.336;12.340;2023-06-24T10:01:46;6.63;;;6.00;;
2061;SDS011;11070;51.336;12.340;2023-06-24T10:04:16;5.60;;;5.20;;
2061;SDS011;11070;51.336;12.340;2023-06-24T10:06:43;6.73;;;5.63;;
2061;SDS011;11070;51.336;12.340;2023-06-24T10:09:09;6.23;;;5.63;;
2061;SDS011;11070;51.336;12.340;2023-06-24T10:11:35;5.43;;;5.13;;
2061;SDS011;11070;51.336;12.340;2023-06-24T10:14:01;7.70;;;7.20;;
2061;SDS011;11070;51.336;12.340;2023-06-24T10:16:27;5.87;;;5.43;;
2061;SDS011;11070;51.336;12.340;2023-06-24T10:18:59;4.80;;;4.50;;
2061;SDS011;11070;51.336;12.340;2023-06-24T10:21:43;6.50;;;5.93;;
2061;SDS011;11070;51.336;12.340;2023-06-24T10:24:29;4.90;;;4.20;;
2061;SDS011;11070;51.336;12.340;2023-06-24T10:27:03;5.23;;;4.83;;
2061;SDS011;11070;51.336;12.340;2023-06-24T10:29:32;4.87;;;4.50;;
2061;SDS011;11070;51.336;12.340;2023-06-24T10:32:08;5.30;;;4.90;;
2061;SDS011;11070;51.336;12.340;2023-06-24T10:37:03;5.87;;;5.40;;
2061;SDS011;11070;51.336;12.340;2023-06-24T10:44:56;6.40;;;5.90;;
2061;SDS011;11070;51.336;12.340;2023-06-24T10:47:27;6.60;;;5.97;;
2061;SDS011;11070;51.336;12.340;2023-06-24T10:49:54;5.50;;;5.10;;
2061;SDS011;11070;51.336;12.340;2023-06-24T10:52:20;5.27;;;4.77;;
2061;SDS011;11070;51.336;12.340;2023-06-24T10:54:47;4.80;;;4.50;;
2061;SDS011;11070;51.336;12.340;2023-06-24T10:57:13;5.13;;;4.70;;
2061;SDS011;11070;51.336;12.340;2023-06-24T10:59:48;5.10;;;4.70;;
2061;SDS011;11070;51.336;12.340;2023-06-24T11:02:15;4.20;;;3.83;;
2061;SDS011;11070;51.336;12.340;2023-06-24T11:07:11;6.20;;;5.00;;
2061;SDS011;11070;51.336;12.340;2023-06-24T11:09:37;5.37;;;4.80;;
2061;SDS011;11070;51.336;12.340;2023-06-24T11:12:03;5.03;;;4.63;;
2061;SDS011;11070;51.336;12.340;2023-06-24T11:14:29;4.60;;;4.30;;
2061;SDS011;11070;51.336;12.340;2023-06-24T11:16:54;4.60;;;4.30;;
2061;SDS011;11070;51.336;12.340;2023-06-24T11:19:20;6.83;;;5.83;;
2061;SDS011;11070;51.336;12.340;2023-06-24T11:21:46;7.10;;;6.50;;
2061;SDS011;11070;51.336;12.340;2023-06-24T11:24:11;5.30;;;4.90;;
2061;SDS011;11070;51.336;12.340;2023-06-24T11:26:38;4.87;;;4.47;;
2061;SDS011;11070;51.336;12.340;2023-06-24T11:29:10;6.00;;;4.83;;
2061;SDS011;11070;51.336;12.340;2023-06-24T11:31:36;5.87;;;4.60;;
2061;SDS011;11070;51.336;12.340;2023-06-24T11:34:02;5.00;;;4.60;;
2061;SDS011;11070;51.336;12.340;2023-06-24T11:36:28;5.00;;;4.60;;
2061;SDS011;11070;51.336;12.340;2023-06-24T11:38:54;4.70;;;4.30;;
2061;SDS011;11070;51.336;12.340;2023-06-24T11:41:20;4.53;;;4.23;;
2061;SDS011;11070;51.336;12.340;2023-06-24T11:43:47;5.27;;;4.83;;
2061;SDS011;11070;51.336;12.340;2023-06-24T11:46:28;6.13;;;5.53;;
2061;SDS011;11070;51.336;12.340;2023-06-24T11:49:06;5.27;;;3.97;;
2061;SDS011;11070;51.336;12.340;2023-06-24T11:51:33;4.70;;;4.40;;
2061;SDS011;11070;51.336;12.340;2023-06-24T11:54:00;3.90;;;3.70;;
2061;SDS011;11070;51.336;12.340;2023-06-24T11:56:36;6.80;;;4.70;;
2061;SDS011;11070;51.336;12.340;2023-06-24T11:59:07;4.37;;;4.07;;
2061;SDS011;11070;51.336;12.340;2023-06-24T12:01:55;4.17;;;3.87;;
2061;SDS011;11070;51.336;12.340;2023-06-24T12:04:31;4.33;;;4.00;;
2061;SDS011;11070;51.336;12.340;2023-06-24T12:06:59;4.30;;;4.10;;
2061;SDS011;11070;51.336;12.340;2023-06-24T12:09:25;4.77;;;3.80;;
2061;SDS011;11070;51.336;12.340;2023-06-24T12:11:51;3.83;;;3.60;;
2061;SDS011;11070;51.336;12.340;2023-06-24T12:14:17;3.97;;;3.70;;
2061;SDS011;11070;51.336;12.340;2023-06-24T12:16:43;4.47;;;4.07;;
2061;SDS011;11070;51.336;12.340;2023-06-24T12:19:09;4.37;;;4.07;;
2061;SDS011;11070;51.336;12.340;2023-06-24T12:21:35;3.80;;;3.60;;
2061;SDS011;11070;51.336;12.340;2023-06-24T12:24:01;7.23;;;4.40;;
2061;SDS011;11070;51.336;12.340;2023-06-24T12:26:27;3.80;;;3.60;;
2061;SDS011;11070;51.336;12.340;2023-06-24T12:28:54;5.10;;;4.70;;
2061;SDS011;11070;51.336;12.340;2023-06-24T12:31:21;4.47;;;4.17;;
2061;SDS011;11070;51.336;12.340;2023-06-24T12:33:47;4.30;;;4.00;;
2061;SDS011;11070;51.336;12.340;2023-06-24T12:36:12;5.00;;;4.60;;
2061;SDS011;11070;51.336;12.340;2023-06-24T12:38:38;4.17;;;3.87;;
2061;SDS011;11070;51.336;12.340;2023-06-24T12:41:04;4.47;;;4.17;;
2061;SDS011;11070;51.336;12.340;2023-06-24T12:43:29;4.10;;;3.80;;
2061;SDS011;11070;51.336;12.340;2023-06-24T12:45:55;4.87;;;4.37;;
2061;SDS011;11070;51.336;12.340;2023-06-24T12:48:21;3.80;;;3.50;;
2061;SDS011;11070;51.336;12.340;2023-06-24T12:50:46;4.20;;;3.90;;
2061;SDS011;11070;51.336;12.340;2023-06-24T12:53:13;4.63;;;4.30;;
2061;SDS011;11070;51.336;12.340;2023-06-24T12:55:40;5.53;;;3.90;;
2061;SDS011;11070;51.336;12.340;2023-06-24T12:58:07;4.63;;;4.23;;
2061;SDS011;11070;51.336;12.340;2023-06-24T13:00:33;4.30;;;3.90;;
2061;SDS011;11070;51.336;12.340;2023-06-24T13:02:58;4.50;;;3.93;;
2061;SDS011;11070;51.336;12.340;2023-06-24T13:05:24;4.63;;;4.23;;
2061;SDS011;11070;51.336;12.340;2023-06-24T13:07:50;3.77;;;3.47;;
2061;SDS011;11070;51.336;12.340;2023-06-24T13:10:15;4.20;;;3.90;;
2061;SDS011;11070;51.336;12.340;2023-06-24T13:12:41;3.60;;;3.30;;
2061;SDS011;11070;51.336;12.340;2023-06-24T13:15:07;3.80;;;3.60;;
2061;SDS011;11070;51.336;12.340;2023-06-24T13:17:35;4.43;;;4.13;;
2061;SDS011;11070;51.336;12.340;2023-06-24T13:20:01;5.17;;;4.77;;
2061;SDS011;11070;51.336;12.340;2023-06-24T13:22:30;4.03;;;3.83;;
2061;SDS011;11070;51.336;12.340;2023-06-24T13:24:56;4.87;;;4.57;;
2061;SDS011;11070;51.336;12.340;2023-06-24T13:27:22;5.30;;;4.20;;
2061;SDS011;11070;51.336;12.340;2023-06-24T13:29:48;4.77;;;4.33;;
2061;SDS011;11070;51.336;12.340;2023-06-24T13:32:13;5.13;;;4.63;;
2061;SDS011;11070;51.336;12.340;2023-06-24T13:34:39;5.50;;;5.10;;
2061;SDS011;11070;51.336;12.340;2023-06-24T13:37:05;4.03;;;3.83;;
2061;SDS011;11070;51.336;12.340;2023-06-24T13:39:30;3.53;;;3.33;;
2061;SDS011;11070;51.336;12.340;2023-06-24T13:41:57;4.33;;;3.97;;
2061;SDS011;11070;51.336;12.340;2023-06-24T13:44:23;4.97;;;4.60;;
2061;SDS011;11070;51.336;12.340;2023-06-24T13:46:49;4.57;;;4.30;;
2061;SDS011;11070;51.336;12.340;2023-06-24T13:49:15;4.90;;;4.37;;
2061;SDS011;11070;51.336;12.340;2023-06-24T13:51:42;4.03;;;3.60;;
2061;SDS011;11070;51.336;12.340;2023-06-24T13:54:07;4.67;;;4.37;;
2061;SDS011;11070;51.336;12.340;2023-06-24T13:56:33;5.03;;;4.63;;
2061;SDS011;11070;51.336;12.340;2023-06-24T13:58:59;4.50;;;4.10;;
2061;SDS011;11070;51.336;12.340;2023-06-24T14:01:25;4.53;;;4.23;;
2061;SDS011;11070;51.336;12.340;2023-06-24T14:03:53;5.13;;;4.77;;
2061;SDS011;11070;51.336;12.340;2023-06-24T14:06:20;4.10;;;3.80;;
2061;SDS011;11070;51.336;12.340;2023-06-24T14:08:47;4.13;;;3.83;;
2061;SDS011;11070;51.336;12.340;2023-06-24T14:11:13;4.23;;;3.93;;
2061;SDS011;11070;51.336;12.340;2023-06-24T14:13:39;4.60;;;4.30;;
2061;SDS011;11070;51.336;12.340;2023-06-24T14:16:06;4.13;;;3.93;;
2061;SDS011;11070;51.336;12.340;2023-06-24T14:18:31;4.53;;;4.07;;
2061;SDS011;11070;51.336;12.340;2023-06-24T14:20:58;5.50;;;5.03;;
2061;SDS011;11070;51.336;12.340;2023-06-24T14:23:24;4.60;;;4.00;;
2061;SDS011;11070;51.336;12.340;2023-06-24T14:25:51;4.47;;;4.07;;
2061;SDS011;11070;51.336;12.340;2023-06-24T14:28:17;5.00;;;4.60;;
2061;SDS011;11070;51.336;12.340;2023-06-24T14:30:43;5.30;;;4.70;;
2061;SDS011;11070;51.336;12.340;2023-06-24T14:33:10;4.10;;;3.80;;
2061;SDS011;11070;51.336;12.340;2023-06-24T14:35:37;4.57;;;4.27;;
2061;SDS011;11070;51.336;12.340;2023-06-24T14:38:03;4.17;;;3.87;;
2061;SDS011;11070;51.336;12.340;2023-06-24T14:40:28;4.63;;;3.87;;
2061;SDS011;11070;51.336;12.340;2023-06-24T14:42:54;3.80;;;3.60;;
2061;SDS011;11070;51.336;12.340;2023-06-24T14:45:20;4.67;;;4.37;;
2061;SDS011;11070;51.336;12.340;2023-06-24T14:47:45;4.90;;;4.60;;
2061;SDS011;11070;51.336;12.340;2023-06-24T14:50:12;3.97;;;3.70;;
2061;SDS011;11070;51.336;12.340;2023-06-24T14:52:37;4.03;;;3.83;;
2061;SDS011;11070;51.336;12.340;2023-06-24T14:55:03;3.70;;;3.50;;